MDT,Max TemperatureF,Mean TemperatureF,Min TemperatureF,Max Dew PointF,MeanDew PointF,Min DewpointF,Max Humidity, Mean Humidity, Min Humidity, Max Sea Level PressureIn, Mean Sea Level PressureIn, Min Sea Level PressureIn, Max VisibilityMiles, Mean VisibilityMiles, Min VisibilityMiles, Max Wind SpeedMPH, Mean Wind SpeedMPH, Max Gust SpeedMPH,PrecipitationIn, CloudCover, Events, WindDirDegrees
2013-6-1,75,61,47,36,32,14,54,37,20,30.08,30.01,29.88,10,10,10,32,13,41,0.00,0,,27
2013-6-2,91,68,45,38,32,22,58,33,8,30.08,29.86,29.62,10,10,10,26,7,31,0.00,0,,141
2013-6-3,99,80,61,39,29,20,31,19,6,29.76,29.62,29.46,10,7,1,43,13,61,0.00,1,,267
2013-6-4,88,74,59,59,48,30,90,57,23,30.01,29.78,29.60,10,9,1,31,11,37,0.01,2,Rain,55
2013-6-5,62,58,53,58,50,46,93,80,67,30.20,30.08,29.89,10,8,2,26,12,31,0.01,7,Rain,57
2013-6-6,82,66,50,49,46,38,89,55,21,30.08,29.96,29.85,10,10,10,15,7,25,0.00,1,,169
2013-6-7,88,72,55,49,45,38,67,42,17,29.91,29.80,29.68,10,10,10,30,9,36,0.00,1,,170
2013-6-8,91,76,61,48,43,37,56,37,17,29.85,29.68,29.58,10,10,7,39,14,46,0.00,1,,35
2013-6-9,92,72,52,46,37,28,68,39,10,29.91,29.83,29.73,10,10,10,14,6,22,0.00,0,,133
2013-6-10,107,84,60,42,27,11,37,20,3,29.81,29.67,29.56,10,10,10,22,10,26,0.00,0,,251
2013-6-11,109,90,70,37,19,-3,29,16,2,29.87,29.61,29.50,10,10,7,18,19,25,0.00,0,,247
2013-6-12,99,81,63,43,27,15,28,17,6,29.91,29.83,29.70,10,10,10,25,11,29,0.00,0,,131
2013-6-13,102,85,67,58,50,28,68,42,15,30.02,29.84,29.71,10,8,0,58,10,66,0.16,1,Rain,106
2013-6-14,97,81,65,52,47,39,58,36,14,30.00,29.81,29.65,10,7,1,49,12,62,0.03,2,Rain,131
2013-6-15,94,76,58,55,48,32,78,45,12,30.05,29.85,29.68,10,8,0,45,9,56,0.03,2,Rain,9
2013-6-16,95,76,57,58,52,38,80,48,15,30.02,29.91,29.77,10,10,4,43,9,51,0.06,1,Rain,165
2013-6-17,90,72,54,57,53,45,93,58,22,30.13,29.99,29.84,10,8,0,47,10,56,1.52,3,Fog-Rain,112
2013-6-18,86,72,57,60,54,41,93,58,22,30.07,29.91,29.73,10,10,6,32,12,37,0.18,2,Rain,112
2013-6-19,94,77,60,63,58,53,90,59,28,30.03,29.71,29.55,10,10,10,25,14,33,T,1,,165
2013-6-20,102,86,70,55,32,6,61,32,3,29.66,29.59,29.53,10,10,10,32,14,97,0.00,1,,246
2013-6-21,102,87,72,49,26,1,44,23,2,29.68,29.60,29.50,10,10,10,37,15,39,0.00,0,,240
2013-6-22,92,79,65,49,41,24,48,32,15,29.72,29.61,29.51,10,10,10,23,10,30,0.00,2,,168
2013-6-23,91,77,63,57,47,34,56,39,21,29.84,29.72,29.57,10,8,2,36,14,45,T,1,,59
2013-6-24,97,81,64,56,39,7,60,33,5,29.75,29.63,29.52,10,10,10,29,11,35,0.00,0,,280
2013-6-25,100,85,70,34,20,11,25,15,5,29.72,29.64,29.57,10,10,10,20,9,24,0.00,0,,255
2013-6-26,102,83,64,52,43,34,48,29,10,29.87,29.80,29.73,10,10,10,18,8,26,0.00,0,,109
2013-6-27,107,88,68,58,48,31,68,38,8,30.00,29.88,29.80,10,10,10,26,12,31,0.00,0,,75
2013-6-28,103,87,70,67,46,24,79,43,7,30.04,29.93,29.81,10,10,10,23,11,26,0.00,0,,128
2013-6-29,93,81,69,58,51,48,61,42,22,30.18,29.97,29.87,10,9,2,45,9,52,T,1,Rain,67
2013-6-30,80,72,63,55,52,46,68,50,32,30.08,30.01,29.96,10,10,10,28,12,33,0.00,2,,100